sensor_id;sensor_type;location;lat;lon;timestamp;pressure;altitude;pressure_sealevel;temperature;humidity
71938;BME280;59810;48.800;9.086;2023-04-19T00:00:40;98197.09;;;9.14;84.44
71938;BME280;59810;48.800;9.086;2023-04-19T00:03:08;98195.22;;;9.15;84.46
71938;BME280;59810;48.800;9.086;2023-04-19T00:05:36;98181.75;;;9.15;84.83
71938;BME280;59810;48.800;9.086;2023-04-19T00:08:10;98184.22;;;9.16;84.82
71938;BME280;59810;48.800;9.086;2023-04-19T00:10:35;98185.28;;;9.15;84.63
71938;BME280;59810;48.800;9.086;2023-04-19T00:13:06;98187.59;;;9.12;85.23
71938;BME280;59810;48.800;9.086;2023-04-19T00:15:31;98187.19;;;9.08;84.77
71938;BME280;59810;48.800;9.086;2023-04-19T00:17:59;98182.63;;;9.09;84.87
71938;BME280;59810;48.800;9.086;2023-04-19T00:20:24;98189.66;;;9.10;84.84
71938;BME280;59810;48.800;9.086;2023-04-19T00:22:49;98186.38;;;9.08;85.10
71938;BME280;59810;48.800;9.086;2023-04-19T00:25:15;98184.81;;;9.00;85.54
71938;BME280;59810;48.800;9.086;2023-04-19T00:27:40;98172.88;;;8.96;85.03
71938;BME280;59810;48.800;9.086;2023-04-19T00:30:06;98171.59;;;8.98;85.47
71938;BME280;59810;48.800;9.086;2023-04-19T00:32:31;98166.56;;;9.02;85.44
71938;BME280;59810;48.800;9.086;2023-04-19T00:34:57;98179.34;;;9.07;85.02
71938;BME280;59810;48.800;9.086;2023-04-19T00:37:22;98181.91;;;9.01;85.06
71938;BME280;59810;48.800;9.086;2023-04-19T00:39:47;98182.94;;;9.00;85.03
71938;BME280;59810;48.800;9.086;2023-04-19T00:42:12;98176.50;;;9.01;85.64
71938;BME280;59810;48.800;9.086;2023-04-19T00:44:38;98180.63;;;9.04;84.85
71938;BME280;59810;48.800;9.086;2023-04-19T00:47:03;98174.41;;;9.03;85.29
71938;BME280;59810;48.800;9.086;2023-04-19T00:49:29;98171.34;;;9.00;85.07
71938;BME280;59810;48.800;9.086;2023-04-19T00:51:55;98171.13;;;9.01;85.07
71938;BME280;59810;48.800;9.086;2023-04-19T00:54:23;98169.94;;;8.97;85.31
71938;BME280;59810;48.800;9.086;2023-04-19T00:56:49;98167.03;;;8.99;85.38
71938;BME280;59810;48.800;9.086;2023-04-19T00:59:15;98170.75;;;8.98;85.60
71938;BME280;59810;48.800;9.086;2023-04-19T01:01:41;98174.97;;;8.94;85.60
71938;BME280;59810;48.800;9.086;2023-04-19T01:04:07;98169.22;;;8.90;85.66
71938;BME280;59810;48.800;9.086;2023-04-19T01:06:36;98167.09;;;8.92;85.64
71938;BME280;59810;48.800;9.086;2023-04-19T01:09:02;98169.81;;;8.92;85.64
71938;BME280;59810;48.800;9.086;2023-04-19T01:11:30;98160.66;;;8.93;85.17
71938;BME280;59810;48.800;9.086;2023-04-19T01:13:56;98159.47;;;8.89;85.43
71938;BME280;59810;48.800;9.086;2023-04-19T01:16:23;98155.47;;;8.80;85.40
71938;BME280;59810;48.800;9.086;2023-04-19T01:18:50;98152.31;;;8.83;85.65
71938;BME280;59810;48.800;9.086;2023-04-19T01:21:15;98151.03;;;8.86;85.53
71938;BME280;59810;48.800;9.086;2023-04-19T01:23:41;98151.25;;;8.84;85.57
71938;BME280;59810;48.800;9.086;2023-04-19T01:26:06;98152.91;;;8.85;85.74
71938;BME280;59810;48.800;9.086;2023-04-19T01:28:32;98148.56;;;8.84;86.28
71938;BME280;59810;48.800;9.086;2023-04-19T01:30:57;98145.06;;;8.84;85.45
71938;BME280;59810;48.800;9.086;2023-04-19T01:33:23;98142.00;;;8.80;86.07
71938;BME280;59810;48.800;9.086;2023-04-19T01:35:49;98139.91;;;8.82;86.39
71938;BME280;59810;48.800;9.086;2023-04-19T01:38:15;98132.06;;;8.81;86.22
71938;BME280;59810;48.800;9.086;2023-04-19T01:40:41;98147.81;;;8.77;86.45
71938;BME280;59810;48.800;9.086;2023-04-19T01:43:06;98140.50;;;8.66;86.21
71938;BME280;59810;48.800;9.086;2023-04-19T01:45:32;98134.28;;;8.65;86.52
71938;BME280;59810;48.800;9.086;2023-04-19T01:47:58;98132.56;;;8.71;86.54
71938;BME280;59810;48.800;9.086;2023-04-19T01:50:25;98134.19;;;8.72;85.90
71938;BME280;59810;48.800;9.086;2023-04-19T01:52:51;98129.66;;;8.72;86.92
71938;BME280;59810;48.800;9.086;2023-04-19T01:55:16;98130.47;;;8.73;86.29
71938;BME280;59810;48.800;9.086;2023-04-19T01:57:44;98123.53;;;8.65;85.92
71938;BME280;59810;48.800;9.086;2023-04-19T02:00:10;98131.38;;;8.67;86.38
71938;BME280;59810;48.800;9.086;2023-04-19T02:02:39;98131.97;;;8.69;86.36
71938;BME280;59810;48.800;9.086;2023-04-19T02:05:05;98129.28;;;8.69;87.01
71938;BME280;59810;48.800;9.086;2023-04-19T02:07:33;98129.50;;;8.67;86.50
71938;BME280;59810;48.800;9.086;2023-04-19T02:10:01;98120.59;;;8.67;87.02
71938;BME280;59810;48.800;9.086;2023-04-19T02:12:27;98116.88;;;8.68;87.38
71938;BME280;59810;48.800;9.086;2023-04-19T02:14:53;98111.03;;;8.71;87.27
71938;BME280;59810;48.800;9.086;2023-04-19T02:17:22;98108.34;;;8.71;86.50
71938;BME280;59810;48.800;9.086;2023-04-19T02:19:47;98108.19;;;8.66;87.15
71938;BME280;59810;48.800;9.086;2023-04-19T02:22:15;98102.81;;;8.66;87.34
71938;BME280;59810;48.800;9.086;2023-04-19T02:24:43;98096.84;;;8.64;87.51
71938;BME280;59810;48.800;9.086;2023-04-19T02:27:08;98097.28;;;8.61;86.72
71938;BME280;59810;48.800;9.086;2023-04-19T02:29:33;98102.91;;;8.59;87.39
71938;BME280;59810;48.800;9.086;2023-04-19T02:31:59;98102.91;;;8.59;87.50
71938;BME280;59810;48.800;9.086;2023-04-19T02:34:26;98093.19;;;8.58;87.41
71938;BME280;59810;48.800;9.086;2023-04-19T02:36:51;98092.34;;;8.58;88.24
71938;BME280;59810;48.800;9.086;2023-04-19T02:39:17;98093.78;;;8.60;87.83
71938;BME280;59810;48.800;9.086;2023-04-19T02:41:42;98093.41;;;8.57;87.62
71938;BME280;59810;48.800;9.086;2023-04-19T02:44:07;98099.63;;;8.57;87.55
71938;BME280;59810;48.800;9.086;2023-04-19T02:46:33;98092.22;;;8.53;87.79
71938;BME280;59810;48.800;9.086;2023-04-19T02:49:02;98083.09;;;8.54;87.66
71938;BME280;59810;48.800;9.086;2023-04-19T02:51:27;98089.06;;;8.56;87.39
71938;BME280;59810;48.800;9.086;2023-04-19T02:53:53;98081.44;;;8.53;87.27
71938;BME280;59810;48.800;9.086;2023-04-19T02:56:19;98080.78;;;8.57;86.90
71938;BME280;59810;48.800;9.086;2023-04-19T02:58:44;98089.22;;;8.61;86.82
71938;BME280;59810;48.800;9.086;2023-04-19T03:01:09;98081.72;;;8.63;87.39
71938;BME280;59810;48.800;9.086;2023-04-19T03:03:35;98086.66;;;8.66;86.99
71938;BME280;59810;48.800;9.086;2023-04-19T03:06:01;98086.88;;;8.64;86.49
71938;BME280;59810;48.800;9.086;2023-04-19T03:08:26;98084.88;;;8.60;86.80
71938;BME280;59810;48.800;9.086;2023-04-19T03:10:51;98082.19;;;8.60;86.58
71938;BME280;59810;48.800;9.086;2023-04-19T03:13:17;98083.00;;;8.60;85.85
71938;BME280;59810;48.800;9.086;2023-04-19T03:15:42;98075.69;;;8.49;86.17
71938;BME280;59810;48.800;9.086;2023-04-19T03:18:07;98077.34;;;8.50;87.00
71938;BME280;59810;48.800;9.086;2023-04-19T03:20:35;98077.34;;;8.50;88.21
71938;BME280;59810;48.800;9.086;2023-04-19T03:23:00;98076.16;;;8.46;87.84
71938;BME280;59810;48.800;9.086;2023-04-19T03:25:26;98077.84;;;8.40;87.11
71938;BME280;59810;48.800;9.086;2023-04-19T03:27:52;98076.22;;;8.39;87.28
71938;BME280;59810;48.800;9.086;2023-04-19T03:30:17;98084.88;;;8.41;87.79
71938;BME280;59810;48.800;9.086;2023-04-19T03:32:46;98070.38;;;8.42;87.62
71938;BME280;59810;48.800;9.086;2023-04-19T03:35:12;98076.88;;;8.35;87.17
71938;BME280;59810;48.800;9.086;2023-04-19T03:37:37;98075.03;;;8.35;87.60
71938;BME280;59810;48.800;9.086;2023-04-19T03:40:03;98079.13;;;8.38;87.74
71938;BME280;59810;48.800;9.086;2023-04-19T03:42:28;98082.50;;;8.33;87.13
71938;BME280;59810;48.800;9.086;2023-04-19T03:44:54;98065.91;;;8.36;88.83
71938;BME280;59810;48.800;9.086;2023-04-19T03:47:19;98070.69;;;8.34;87.88
71938;BME280;59810;48.800;9.086;2023-04-19T03:49:47;98065.91;;;8.36;88.57
71938;BME280;59810;48.800;9.086;2023-04-19T03:52:15;98058.44;;;8.38;88.39
71938;BME280;59810;48.800;9.086;2023-04-19T03:54:40;98064.25;;;8.35;87.64
71938;BME280;59810;48.800;9.086;2023-04-19T03:57:09;98058.44;;;8.38;87.37
71938;BME280;59810;48.800;9.086;2023-04-19T03:59:37;98058.88;;;8.35;88.06
71938;BME280;59810;48.800;9.086;2023-04-19T04:02:02;98055.13;;;8.36;88.32
71938;BME280;59810;48.800;9.086;2023-04-19T04:04:28;98057.22;;;8.34;87.74
71938;BME280;59810;48.800;9.086;2023-04-19T04:06:53;98065.31;;;8.34;87.43
71938;BME280;59810;48.800;9.086;2023-04-19T04:09:19;98063.03;;;8.31;87.88
71938;BME280;59810;48.800;9.086;2023-04-19T04:11:45;98062.88;;;8.26;86.59
71938;BME280;59810;48.800;9.086;2023-04-19T04:14:10;98059.47;;;8.19;87.83
71938;BME280;59810;48.800;9.086;2023-04-19T04:16:36;98067.75;;;8.18;88.27
71938;BME280;59810;48.800;9.086;2023-04-19T04:19:01;98062.81;;;8.15;89.75
71938;BME280;59810;48.800;9.086;2023-04-19T04:21:26;98065.75;;;8.13;90.10
71938;BME280;59810;48.800;9.086;2023-04-19T04:23:52;98067.44;;;8.07;90.30
71938;BME280;59810;48.800;9.086;2023-04-19T04:26:17;98062.88;;;8.08;89.67
71938;BME280;59810;48.800;9.086;2023-04-19T04:28:44;98075.28;;;8.09;88.96
71938;BME280;59810;48.800;9.086;2023-04-19T04:31:10;98070.25;;;8.12;89.12
71938;BME280;59810;48.800;9.086;2023-04-19T04:33:36;98072.13;;;8.12;88.80
71938;BME280;59810;48.800;9.086;2023-04-19T04:36:02;98069.44;;;8.12;88.23
71938;BME280;59810;48.800;9.086;2023-04-19T04:38:29;98068.25;;;8.08;87.81
71938;BME280;59810;48.800;9.086;2023-04-19T04:40:55;98072.34;;;8.10;88.22
71938;BME280;59810;48.800;9.086;2023-04-19T04:43:22;98069.44;;;8.12;88.71
71938;BME280;59810;48.800;9.086;2023-04-19T04:45:48;98066.97;;;8.10;88.56
71938;BME280;59810;48.800;9.086;2023-04-19T04:48:14;98066.97;;;8.10;88.24
71938;BME280;59810;48.800;9.086;2023-04-19T04:50:39;98072.34;;;8.10;88.32
71938;BME280;59810;48.800;9.086;2023-04-19T04:53:05;98068.84;;;8.10;88.28
71938;BME280;59810;48.800;9.086;2023-04-19T04:55:31;98067.06;;;8.04;87.86
71938;BME280;59810;48.800;9.086;2023-04-19T04:57:58;98079.91;;;8.02;88.37
71938;BME280;59810;48.800;9.086;2023-04-19T05:00:26;98084.84;;;8.05;89.33
71938;BME280;59810;48.800;9.086;2023-04-19T05:02:51;98081.69;;;8.08;88.88
71938;BME280;59810;48.800;9.086;2023-04-19T05:05:17;98076.69;;;8.11;88.58
71938;BME280;59810;48.800;9.086;2023-04-19T05:07:42;98081.44;;;8.16;88.34
71938;BME280;59810;48.800;9.086;2023-04-19T05:10:08;98079.78;;;8.15;88.14
71938;BME280;59810;48.800;9.086;2023-04-19T05:12:35;98080.59;;;8.16;87.22
71938;BME280;59810;48.800;9.086;2023-04-19T05:15:00;98082.25;;;8.17;88.03
71938;BME280;59810;48.800;9.086;2023-04-19T05:17:26;98083.53;;;8.14;87.56
71938;BME280;59810;48.800;9.086;2023-04-19T05:19:51;98079.44;;;8.05;86.53
71938;BME280;59810;48.800;9.086;2023-04-19T05:22:16;98091.47;;;8.02;87.91
71938;BME280;59810;48.800;9.086;2023-04-19T05:24:44;98082.16;;;8.05;87.79
71938;BME280;59810;48.800;9.086;2023-04-19T05:27:12;98085.06;;;8.03;86.34
71938;BME280;59810;48.800;9.086;2023-04-19T05:29:37;98087.44;;;8.11;87.89
71938;BME280;59810;48.800;9.086;2023-04-19T05:32:02;98086.81;;;8.16;86.69
71938;BME280;59810;48.800;9.086;2023-04-19T05:34:28;98089.19;;;8.24;86.15
71938;BME280;59810;48.800;9.086;2023-04-19T05:36:54;98090.63;;;8.27;85.96
71938;BME280;59810;48.800;9.086;2023-04-19T05:39:19;98090.34;;;8.35;85.94
71938;BME280;59810;48.800;9.086;2023-04-19T05:41:45;98091.75;;;8.37;85.75
71938;BME280;59810;48.800;9.086;2023-04-19T05:44:10;98102.66;;;8.42;86.02
71938;BME280;59810;48.800;9.086;2023-04-19T05:46:35;98090.03;;;8.43;85.65
71938;BME280;59810;48.800;9.086;2023-04-19T05:49:01;98094.66;;;8.36;84.97
71938;BME280;59810;48.800;9.086;2023-04-19T05:51:26;98088.84;;;8.39;85.36
71938;BME280;59810;48.800;9.086;2023-04-19T05:53:52;98089.94;;;8.31;85.03
71938;BME280;59810;48.800;9.086;2023-04-19T05:56:18;98101.16;;;8.28;85.74
71938;BME280;59810;48.800;9.086;2023-04-19T05:58:43;98095.94;;;8.33;85.12
71938;BME280;59810;48.800;9.086;2023-04-19T06:01:08;98098.63;;;8.33;85.56
71938;BME280;59810;48.800;9.086;2023-04-19T06:03:34;98097.38;;;8.36;85.05
71938;BME280;59810;48.800;9.086;2023-04-19T06:05:59;98088.69;;;8.34;85.57
71938;BME280;59810;48.800;9.086;2023-04-19T06:08:24;98094.06;;;8.34;83.41
71938;BME280;59810;48.800;9.086;2023-04-19T06:10:50;98093.06;;;8.28;84.22
71938;BME280;59810;48.800;9.086;2023-04-19T06:13:16;98098.47;;;8.28;84.98
71938;BME280;59810;48.800;9.086;2023-04-19T06:15:43;98092.03;;;8.29;84.70
71938;BME280;59810;48.800;9.086;2023-04-19T06:18:12;98103.38;;;8.31;85.45
71938;BME280;59810;48.800;9.086;2023-04-19T06:20:39;98097.72;;;8.21;84.26
71938;BME280;59810;48.800;9.086;2023-04-19T06:23:05;98099.66;;;8.32;85.13
71938;BME280;59810;48.800;9.086;2023-04-19T06:25:31;98095.31;;;8.31;84.37
71938;BME280;59810;48.800;9.086;2023-04-19T06:27:57;98101.09;;;8.35;84.16
71938;BME280;59810;48.800;9.086;2023-04-19T06:30:22;98095.19;;;8.45;86.49
71938;BME280;59810;48.800;9.086;2023-04-19T06:32:49;98097.22;;;8.49;84.53
71938;BME280;59810;48.800;9.086;2023-04-19T06:35:15;98095.59;;;8.48;83.46
71938;BME280;59810;48.800;9.086;2023-04-19T06:37:42;98098.94;;;8.43;82.96
71938;BME280;59810;48.800;9.086;2023-04-19T06:40:08;98100.97;;;8.48;83.14
71938;BME280;59810;48.800;9.086;2023-04-19T06:42:34;98103.25;;;8.45;83.64
71938;BME280;59810;48.800;9.086;2023-04-19T06:44:59;98102.16;;;8.52;84.43
71938;BME280;59810;48.800;9.086;2023-04-19T06:47:27;98101.72;;;8.55;84.26
71938;BME280;59810;48.800;9.086;2023-04-19T06:49:53;98099.25;;;8.54;82.52
71938;BME280;59810;48.800;9.086;2023-04-19T06:52:18;98093.53;;;8.62;83.23
71938;BME280;59810;48.800;9.086;2023-04-19T06:54:47;98098.03;;;8.68;83.22
71938;BME280;59810;48.800;9.086;2023-04-19T06:57:13;98089.94;;;8.68;83.57
71938;BME280;59810;48.800;9.086;2023-04-19T06:59:39;98095.63;;;8.78;83.63
71938;BME280;59810;48.800;9.086;2023-04-19T07:02:06;98096.28;;;8.92;83.32
71938;BME280;59810;48.800;9.086;2023-04-19T07:04:32;98097.56;;;8.89;81.82
71938;BME280;59810;48.800;9.086;2023-04-19T07:06:57;98097.94;;;9.04;82.59
71938;BME280;59810;48.800;9.086;2023-04-19T07:09:23;98095.44;;;9.21;82.10
71938;BME280;59810;48.800;9.086;2023-04-19T07:11:48;98098.16;;;9.21;80.50
71938;BME280;59810;48.800;9.086;2023-04-19T07:14:16;98099.00;;;9.03;81.24
71938;BME280;59810;48.800;9.086;2023-04-19T07:16:45;98094.63;;;8.91;81.29
71938;BME280;59810;48.800;9.086;2023-04-19T07:19:11;98097.56;;;8.89;81.32
71938;BME280;59810;48.800;9.086;2023-04-19T07:21:37;98093.13;;;8.95;81.32
71938;BME280;59810;48.800;9.086;2023-04-19T07:24:05;98079.88;;;8.93;80.66
71938;BME280;59810;48.800;9.086;2023-04-19T07:26:31;98092.78;;;9.03;81.13
71938;BME280;59810;48.800;9.086;2023-04-19T07:28:57;98079.47;;;9.08;80.90
71938;BME280;59810;48.800;9.086;2023-04-19T07:31:25;98083.19;;;9.07;81.31
71938;BME280;59810;48.800;9.086;2023-04-19T07:33:51;98080.47;;;9.25;81.16
71938;BME280;59810;48.800;9.086;2023-04-19T07:36:16;98079.91;;;9.35;80.70
71938;BME280;59810;48.800;9.086;2023-04-19T07:38:42;98074.88;;;9.39;79.39
71938;BME280;59810;48.800;9.086;2023-04-19T07:41:07;98085.03;;;9.25;79.58
71938;BME280;59810;48.800;9.086;2023-04-19T07:43:33;98081.66;;;9.41;79.91
71938;BME280;59810;48.800;9.086;2023-04-19T07:46:07;98079.13;;;9.46;79.48
71938;BME280;59810;48.800;9.086;2023-04-19T07:48:32;98078.44;;;9.62;79.53
71938;BME280;59810;48.800;9.086;2023-04-19T07:51:07;98071.50;;;9.66;78.53
71938;BME280;59810;48.800;9.086;2023-04-19T07:53:32;98073.50;;;9.71;77.37
71938;BME280;59810;48.800;9.086;2023-04-19T07:55:58;98074.81;;;9.80;77.85
71938;BME280;59810;48.800;9.086;2023-04-19T07:58:27;98062.63;;;9.89;77.50
71938;BME280;59810;48.800;9.086;2023-04-19T08:00:53;98059.19;;;10.06;77.52
71938;BME280;59810;48.800;9.086;2023-04-19T08:03:18;98054.53;;;10.24;74.94
71938;BME280;59810;48.800;9.086;2023-04-19T08:05:43;98053.47;;;10.25;75.80
71938;BME280;59810;48.800;9.086;2023-04-19T08:08:11;98055.22;;;10.20;74.68
71938;BME280;59810;48.800;9.086;2023-04-19T08:10:36;98055.69;;;10.28;74.37
71938;BME280;59810;48.800;9.086;2023-04-19T08:13:02;98051.13;;;10.41;75.85
71938;BME280;59810;48.800;9.086;2023-04-19T08:15:27;98056.91;;;10.61;72.77
71938;BME280;59810;48.800;9.086;2023-04-19T08:17:57;98054.63;;;10.41;71.84
71938;BME280;59810;48.800;9.086;2023-04-19T08:20:25;98049.44;;;10.51;73.52
71938;BME280;59810;48.800;9.086;2023-04-19T08:22:51;98050.53;;;10.67;72.60
71938;BME280;59810;48.800;9.086;2023-04-19T08:25:18;98046.66;;;10.75;71.54
71938;BME280;59810;48.800;9.086;2023-04-19T08:27:43;98042.22;;;10.97;73.64
71938;BME280;59810;48.800;9.086;2023-04-19T08:30:09;98045.13;;;11.07;70.06
71938;BME280;59810;48.800;9.086;2023-04-19T08:32:35;98045.94;;;11.25;70.27
71938;BME280;59810;48.800;9.086;2023-04-19T08:35:00;98043.97;;;11.20;70.52
71938;BME280;59810;48.800;9.086;2023-04-19T08:37:26;98045.72;;;11.26;69.21
71938;BME280;59810;48.800;9.086;2023-04-19T08:39:51;98048.81;;;11.35;69.43
71938;BME280;59810;48.800;9.086;2023-04-19T08:42:19;98041.78;;;11.34;68.60
71938;BME280;59810;48.800;9.086;2023-04-19T08:44:45;98046.22;;;11.40;67.78
71938;BME280;59810;48.800;9.086;2023-04-19T08:47:15;98041.16;;;11.43;66.55
71938;BME280;59810;48.800;9.086;2023-04-19T08:49:41;98037.25;;;11.22;66.13
71938;BME280;59810;48.800;9.086;2023-04-19T08:52:12;98035.16;;;11.41;65.82
71938;BME280;59810;48.800;9.086;2023-04-19T08:54:37;98036.63;;;11.66;66.72
71938;BME280;59810;48.800;9.086;2023-04-19T08:57:06;98036.09;;;11.80;66.14
71938;BME280;59810;48.800;9.086;2023-04-19T08:59:33;98028.78;;;11.81;66.80
71938;BME280;59810;48.800;9.086;2023-04-19T09:02:02;98038.44;;;11.94;66.14
71938;BME280;59810;48.800;9.086;2023-04-19T09:04:27;98036.03;;;11.97;66.12
71938;BME280;59810;48.800;9.086;2023-04-19T09:06:56;98031.50;;;11.81;65.32
71938;BME280;59810;48.800;9.086;2023-04-19T09:09:26;98040.97;;;11.67;66.89
71938;BME280;59810;48.800;9.086;2023-04-19T09:11:54;98030.56;;;11.59;66.09
71938;BME280;59810;48.800;9.086;2023-04-19T09:14:27;98026.72;;;11.54;66.90
71938;BME280;59810;48.800;9.086;2023-04-19T09:16:52;98035.13;;;11.25;68.91
71938;BME280;59810;48.800;9.086;2023-04-19T09:19:18;98028.25;;;11.17;70.20
71938;BME280;59810;48.800;9.086;2023-04-19T09:21:43;98031.19;;;11.15;70.60
71938;BME280;59810;48.800;9.086;2023-04-19T09:24:09;98023.25;;;11.09;70.40
71938;BME280;59810;48.800;9.086;2023-04-19T09:26:36;98019.97;;;11.07;71.56
71938;BME280;59810;48.800;9.086;2023-04-19T09:29:04;98022.59;;;11.18;70.36
71938;BME280;59810;48.800;9.086;2023-04-19T09:31:36;98014.34;;;11.25;69.99
71938;BME280;59810;48.800;9.086;2023-04-19T09:34:17;98016.75;;;11.38;70.20
71938;BME280;59810;48.800;9.086;2023-04-19T09:36:43;98011.22;;;11.50;69.83
71938;BME280;59810;48.800;9.086;2023-04-19T09:39:09;98016.75;;;11.38;70.43
71938;BME280;59810;48.800;9.086;2023-04-19T09:41:49;98004.59;;;11.41;69.55
71938;BME280;59810;48.800;9.086;2023-04-19T09:44:15;98004.34;;;11.42;70.13
71938;BME280;59810;48.800;9.086;2023-04-19T09:46:41;97999.19;;;11.58;70.47
71938;BME280;59810;48.800;9.086;2023-04-19T09:49:20;97996.16;;;11.71;69.42
71938;BME280;59810;48.800;9.086;2023-04-19T09:51:55;97996.91;;;11.49;67.65
71938;BME280;59810;48.800;9.086;2023-04-19T09:54:23;97997.41;;;11.80;67.28
71938;BME280;59810;48.800;9.086;2023-04-19T09:56:49;97984.19;;;11.83;67.13
71938;BME280;59810;48.800;9.086;2023-04-19T09:59:15;97992.03;;;11.85;69.80
71938;BME280;59810;48.800;9.086;2023-04-19T10:01:45;97992.13;;;11.90;69.07
71938;BME280;59810;48.800;9.086;2023-04-19T10:04:15;97985.63;;;11.91;68.10
71938;BME280;59810;48.800;9.086;2023-04-19T10:06:53;97989.22;;;11.97;66.44
71938;BME280;59810;48.800;9.086;2023-04-19T10:09:22;97985.75;;;11.79;66.18
71938;BME280;59810;48.800;9.086;2023-04-19T10:11:55;97987.63;;;11.79;65.01
71938;BME280;59810;48.800;9.086;2023-04-19T10:14:24;97986.97;;;11.89;66.64
71938;BME280;59810;48.800;9.086;2023-04-19T10:16:50;97982.66;;;12.09;72.30
71938;BME280;59810;48.800;9.086;2023-04-19T10:19:17;97980.13;;;12.25;63.09
71938;BME280;59810;48.800;9.086;2023-04-19T10:21:45;97975.22;;;12.22;62.78
71938;BME280;59810;48.800;9.086;2023-04-19T10:24:13;97966.34;;;12.48;65.94
71938;BME280;59810;48.800;9.086;2023-04-19T10:32:18;97966.47;;;12.14;62.74
71938;BME280;59810;48.800;9.086;2023-04-19T10:34:44;97968.34;;;12.14;63.37
71938;BME280;59810;48.800;9.086;2023-04-19T10:37:12;97966.13;;;11.89;63.53
71938;BME280;59810;48.800;9.086;2023-04-19T10:39:40;97968.69;;;11.79;65.11
71938;BME280;59810;48.800;9.086;2023-04-19T10:42:08;97971.72;;;11.66;66.08
71938;BME280;59810;48.800;9.086;2023-04-19T10:44:33;97962.69;;;11.77;67.29
71938;BME280;59810;48.800;9.086;2023-04-19T10:47:01;97952.53;;;11.67;67.04
71938;BME280;59810;48.800;9.086;2023-04-19T10:49:29;97956.56;;;11.65;66.00
71938;BME280;59810;48.800;9.086;2023-04-19T10:51:55;97962.81;;;11.48;67.17
71938;BME280;59810;48.800;9.086;2023-04-19T10:54:32;97954.78;;;11.37;68.36
71938;BME280;59810;48.800;9.086;2023-04-19T10:59:28;97934.72;;;11.33;67.77
71938;BME280;59810;48.800;9.086;2023-04-19T11:01:56;97941.03;;;11.38;68.71
71938;BME280;59810;48.800;9.086;2023-04-19T11:07:06;97936.97;;;11.58;68.22
71938;BME280;59810;48.800;9.086;2023-04-19T11:09:43;97930.06;;;11.67;68.09
71938;BME280;59810;48.800;9.086;2023-04-19T11:12:09;97929.75;;;11.80;68.51
71938;BME280;59810;48.800;9.086;2023-04-19T11:14:50;97921.13;;;11.83;66.72
71938;BME280;59810;48.800;9.086;2023-04-19T11:17:20;97931.72;;;11.68;66.90
71938;BME280;59810;48.800;9.086;2023-04-19T11:24:51;97916.47;;;11.62;68.58
71938;BME280;59810;48.800;9.086;2023-04-19T11:27:16;97911.25;;;11.55;68.80
71938;BME280;59810;48.800;9.086;2023-04-19T11:29:42;97911.13;;;11.45;69.51
71938;BME280;59810;48.800;9.086;2023-04-19T11:32:07;97922.44;;;11.42;70.06
71938;BME280;59810;48.800;9.086;2023-04-19T11:34:36;97915.06;;;11.20;71.75
71938;BME280;59810;48.800;9.086;2023-04-19T11:37:04;97915.88;;;11.21;71.62
71938;BME280;59810;48.800;9.086;2023-04-19T11:39:30;97915.41;;;11.07;72.81
71938;BME280;59810;48.800;9.086;2023-04-19T11:41:55;97920.31;;;11.10;74.12
71938;BME280;59810;48.800;9.086;2023-04-19T11:44:22;97910.84;;;11.08;74.62
71938;BME280;59810;48.800;9.086;2023-04-19T11:47:02;97914.75;;;11.00;73.84
71938;BME280;59810;48.800;9.086;2023-04-19T11:49:30;97911.97;;;10.95;74.85
71938;BME280;59810;48.800;9.086;2023-04-19T11:52:00;97907.94;;;10.81;75.44
71938;BME280;59810;48.800;9.086;2023-04-19T11:54:26;97909.00;;;10.80;75.15
71938;BME280;59810;48.800;9.086;2023-04-19T11:57:05;97908.13;;;10.74;77.18
71938;BME280;59810;48.800;9.086;2023-04-19T11:59:32;97911.41;;;10.48;77.63
71938;BME280;59810;48.800;9.086;2023-04-19T12:02:08;97912.25;;;10.08;79.75
71938;BME280;59810;48.800;9.086;2023-04-19T12:04:34;97912.72;;;10.05;82.21
71938;BME280;59810;48.800;9.086;2023-04-19T12:07:01;97914.81;;;10.03;85.04
71938;BME280;59810;48.800;9.086;2023-04-19T12:09:27;97913.94;;;9.86;86.94
71938;BME280;59810;48.800;9.086;2023-04-19T12:11:52;97903.88;;;9.81;88.53
71938;BME280;59810;48.800;9.086;2023-04-19T12:14:21;97905.28;;;9.72;88.17
71938;BME280;59810;48.800;9.086;2023-04-19T12:19:36;97906.47;;;9.64;91.76
71938;BME280;59810;48.800;9.086;2023-04-19T12:22:15;97900.75;;;9.61;91.68
71938;BME280;59810;48.800;9.086;2023-04-19T12:24:44;97898.16;;;9.66;91.60
71938;BME280;59810;48.800;9.086;2023-04-19T12:27:09;97899.94;;;9.60;89.95
71938;BME280;59810;48.800;9.086;2023-04-19T12:29:36;97894.66;;;9.54;91.33
71938;BME280;59810;48.800;9.086;2023-04-19T12:32:02;97899.84;;;9.44;90.28
71938;BME280;59810;48.800;9.086;2023-04-19T12:34:28;97900.88;;;9.43;93.15
71938;BME280;59810;48.800;9.086;2023-04-19T12:36:55;97900.28;;;9.41;93.66
71938;BME280;59810;48.800;9.086;2023-04-19T12:39:22;97896.78;;;9.40;93.79
71938;BME280;59810;48.800;9.086;2023-04-19T12:41:47;97901.81;;;9.36;92.44
71938;BME280;59810;48.800;9.086;2023-04-19T12:44:15;97902.06;;;9.35;93.09
71938;BME280;59810;48.800;9.086;2023-04-19T12:46:40;97895.03;;;9.34;89.94
71938;BME280;59810;48.800;9.086;2023-04-19T12:49:06;97888.00;;;9.33;90.75
71938;BME280;59810;48.800;9.086;2023-04-19T12:51:31;97888.34;;;9.36;90.39
71938;BME280;59810;48.800;9.086;2023-04-19T12:53:57;97892.69;;;9.38;89.44
71938;BME280;59810;48.800;9.086;2023-04-19T12:56:22;97884.38;;;9.27;89.34
71938;BME280;59810;48.800;9.086;2023-04-19T12:58:50;97882.03;;;9.31;90.48
71938;BME280;59810;48.800;9.086;2023-04-19T13:01:16;97881.91;;;9.26;88.69
71938;BME280;59810;48.800;9.086;2023-04-19T13:03:42;97886.47;;;9.25;88.84
71938;BME280;59810;48.800;9.086;2023-04-19T13:06:08;97882.84;;;9.20;86.68
71938;BME280;59810;48.800;9.086;2023-04-19T13:08:33;97886.38;;;9.20;87.46
71938;BME280;59810;48.800;9.086;2023-04-19T13:10:59;97878.41;;;9.14;87.40
71938;BME280;59810;48.800;9.086;2023-04-19T13:13:24;97885.78;;;9.18;87.39
71938;BME280;59810;48.800;9.086;2023-04-19T13:15:52;97872.22;;;9.13;87.51
71938;BME280;59810;48.800;9.086;2023-04-19T13:18:18;97872.22;;;9.13;87.75
71938;BME280;59810;48.800;9.086;2023-04-19T13:20:43;97875.56;;;9.09;88.66
71938;BME280;59810;48.800;9.086;2023-04-19T13:23:11;97865.19;;;9.12;89.13